sensor_id;sensor_type;location;lat;lon;timestamp;P1;durP1;ratioP1;P2;durP2;ratioP2
71806;SDS011;59655;42.590;23.364;2023-01-06T00:00:19;9.07;;;4.45;;
71806;SDS011;59655;42.590;23.364;2023-01-06T00:02:45;8.68;;;4.35;;
71806;SDS011;59655;42.590;23.364;2023-01-06T00:05:11;7.45;;;3.80;;
71806;SDS011;59655;42.590;23.364;2023-01-06T00:07:38;10.77;;;4.00;;
71806;SDS011;59655;42.590;23.364;2023-01-06T00:10:03;8.90;;;4.20;;
71806;SDS011;59655;42.590;23.364;2023-01-06T00:12:30;7.72;;;3.60;;
71806;SDS011;59655;42.590;23.364;2023-01-06T00:14:55;15.55;;;4.00;;
71806;SDS011;59655;42.590;23.364;2023-01-06T00:17:21;11.57;;;4.32;;
71806;SDS011;59655;42.590;23.364;2023-01-06T00:19:46;9.18;;;3.90;;
71806;SDS011;59655;42.590;23.364;2023-01-06T00:22:12;8.50;;;4.13;;
71806;SDS011;59655;42.590;23.364;2023-01-06T00:24:37;10.35;;;4.13;;
71806;SDS011;59655;42.590;23.364;2023-01-06T00:27:03;9.70;;;4.07;;
71806;SDS011;59655;42.590;23.364;2023-01-06T00:29:28;8.13;;;4.65;;
71806;SDS011;59655;42.590;23.364;2023-01-06T00:31:54;7.75;;;3.63;;
71806;SDS011;59655;42.590;23.364;2023-01-06T00:34:19;8.80;;;3.50;;
71806;SDS011;59655;42.590;23.364;2023-01-06T00:36:44;8.00;;;3.95;;
71806;SDS011;59655;42.590;23.364;2023-01-06T00:39:10;7.18;;;3.70;;
71806;SDS011;59655;42.590;23.364;2023-01-06T00:41:37;10.07;;;4.70;;
71806;SDS011;59655;42.590;23.364;2023-01-06T00:44:21;8.27;;;3.80;;
71806;SDS011;59655;42.590;23.364;2023-01-06T00:46:46;8.63;;;4.03;;
71806;SDS011;59655;42.590;23.364;2023-01-06T00:49:12;8.30;;;3.95;;
71806;SDS011;59655;42.590;23.364;2023-01-06T00:51:38;10.90;;;6.03;;
71806;SDS011;59655;42.590;23.364;2023-01-06T00:54:04;9.98;;;4.53;;
71806;SDS011;59655;42.590;23.364;2023-01-06T00:56:31;8.88;;;4.47;;
71806;SDS011;59655;42.590;23.364;2023-01-06T00:59:00;6.63;;;3.30;;
71806;SDS011;59655;42.590;23.364;2023-01-06T01:01:27;8.45;;;3.83;;
71806;SDS011;59655;42.590;23.364;2023-01-06T01:03:52;8.25;;;3.63;;
71806;SDS011;59655;42.590;23.364;2023-01-06T01:06:17;8.55;;;3.92;;
71806;SDS011;59655;42.590;23.364;2023-01-06T01:08:43;9.98;;;4.03;;
71806;SDS011;59655;42.590;23.364;2023-01-06T01:11:09;7.07;;;3.85;;
71806;SDS011;59655;42.590;23.364;2023-01-06T01:13:55;5.65;;;2.92;;
71806;SDS011;59655;42.590;23.364;2023-01-06T01:16:21;9.25;;;3.78;;
71806;SDS011;59655;42.590;23.364;2023-01-06T01:18:46;8.15;;;3.80;;
71806;SDS011;59655;42.590;23.364;2023-01-06T01:21:11;6.65;;;3.35;;
71806;SDS011;59655;42.590;23.364;2023-01-06T01:23:37;5.78;;;2.97;;
71806;SDS011;59655;42.590;23.364;2023-01-06T01:26:02;8.35;;;3.67;;
71806;SDS011;59655;42.590;23.364;2023-01-06T01:28:28;5.72;;;2.80;;
71806;SDS011;59655;42.590;23.364;2023-01-06T01:30:59;5.82;;;2.70;;
71806;SDS011;59655;42.590;23.364;2023-01-06T01:33:27;4.65;;;2.80;;
71806;SDS011;59655;42.590;23.364;2023-01-06T01:35:53;5.03;;;2.63;;
71806;SDS011;59655;42.590;23.364;2023-01-06T01:38:19;4.90;;;2.55;;
71806;SDS011;59655;42.590;23.364;2023-01-06T01:40:47;5.28;;;2.83;;
71806;SDS011;59655;42.590;23.364;2023-01-06T01:43:14;5.30;;;2.72;;
71806;SDS011;59655;42.590;23.364;2023-01-06T01:45:40;5.60;;;2.80;;
71806;SDS011;59655;42.590;23.364;2023-01-06T01:50:58;4.45;;;2.13;;
71806;SDS011;59655;42.590;23.364;2023-01-06T01:53:27;4.80;;;2.30;;
71806;SDS011;59655;42.590;23.364;2023-01-06T01:56:01;5.50;;;2.47;;
71806;SDS011;59655;42.590;23.364;2023-01-06T02:00:56;3.97;;;1.40;;
71806;SDS011;59655;42.590;23.364;2023-01-06T02:03:22;1.67;;;1.00;;
71806;SDS011;59655;42.590;23.364;2023-01-06T02:05:51;1.83;;;0.80;;
71806;SDS011;59655;42.590;23.364;2023-01-06T02:10:55;3.10;;;1.10;;
71806;SDS011;59655;42.590;23.364;2023-01-06T02:13:21;3.03;;;1.20;;
71806;SDS011;59655;42.590;23.364;2023-01-06T02:15:47;3.95;;;1.45;;
71806;SDS011;59655;42.590;23.364;2023-01-06T02:26:20;2.08;;;0.95;;
71806;SDS011;59655;42.590;23.364;2023-01-06T02:48:11;3.47;;;1.48;;
71806;SDS011;59655;42.590;23.364;2023-01-06T02:53:26;5.60;;;1.95;;
71806;SDS011;59655;42.590;23.364;2023-01-06T02:55:56;3.45;;;1.45;;
71806;SDS011;59655;42.590;23.364;2023-01-06T02:58:27;2.45;;;1.25;;
71806;SDS011;59655;42.590;23.364;2023-01-06T03:01:17;3.47;;;1.00;;
71806;SDS011;59655;42.590;23.364;2023-01-06T03:03:48;3.00;;;1.20;;
71806;SDS011;59655;42.590;23.364;2023-01-06T03:06:16;3.40;;;1.92;;
71806;SDS011;59655;42.590;23.364;2023-01-06T03:08:44;2.95;;;1.10;;
71806;SDS011;59655;42.590;23.364;2023-01-06T03:11:11;3.42;;;1.20;;
71806;SDS011;59655;42.590;23.364;2023-01-06T03:13:44;5.30;;;1.60;;
71806;SDS011;59655;42.590;23.364;2023-01-06T03:16:14;2.88;;;1.30;;
71806;SDS011;59655;42.590;23.364;2023-01-06T03:18:41;3.42;;;1.30;;
71806;SDS011;59655;42.590;23.364;2023-01-06T03:21:10;5.15;;;1.10;;
71806;SDS011;59655;42.590;23.364;2023-01-06T03:23:39;2.90;;;1.30;;
71806;SDS011;59655;42.590;23.364;2023-01-06T03:26:05;1.70;;;0.60;;
71806;SDS011;59655;42.590;23.364;2023-01-06T03:28:31;2.83;;;0.77;;
71806;SDS011;59655;42.590;23.364;2023-01-06T03:31:01;2.22;;;0.90;;
71806;SDS011;59655;42.590;23.364;2023-01-06T03:50:34;4.30;;;1.35;;
71806;SDS011;59655;42.590;23.364;2023-01-06T03:55:50;3.80;;;1.30;;
71806;SDS011;59655;42.590;23.364;2023-01-06T03:58:22;4.53;;;2.13;;
71806;SDS011;59655;42.590;23.364;2023-01-06T04:00:49;3.95;;;1.50;;
71806;SDS011;59655;42.590;23.364;2023-01-06T04:03:15;3.92;;;1.45;;
71806;SDS011;59655;42.590;23.364;2023-01-06T04:05:41;4.15;;;1.45;;
71806;SDS011;59655;42.590;23.364;2023-01-06T04:08:07;4.55;;;1.67;;
71806;SDS011;59655;42.590;23.364;2023-01-06T04:10:32;5.28;;;1.80;;
71806;SDS011;59655;42.590;23.364;2023-01-06T04:12:58;2.55;;;1.40;;
71806;SDS011;59655;42.590;23.364;2023-01-06T04:15:24;4.43;;;1.55;;
71806;SDS011;59655;42.590;23.364;2023-01-06T04:17:51;5.38;;;2.40;;
71806;SDS011;59655;42.590;23.364;2023-01-06T04:20:17;4.47;;;1.40;;
71806;SDS011;59655;42.590;23.364;2023-01-06T04:22:44;5.32;;;1.83;;
71806;SDS011;59655;42.590;23.364;2023-01-06T04:25:10;3.22;;;1.67;;
71806;SDS011;59655;42.590;23.364;2023-01-06T04:27:36;3.25;;;1.58;;
71806;SDS011;59655;42.590;23.364;2023-01-06T04:30:02;4.32;;;1.65;;
71806;SDS011;59655;42.590;23.364;2023-01-06T04:32:28;4.78;;;2.08;;
71806;SDS011;59655;42.590;23.364;2023-01-06T04:34:54;4.40;;;1.90;;
71806;SDS011;59655;42.590;23.364;2023-01-06T04:37:19;3.90;;;1.30;;
71806;SDS011;59655;42.590;23.364;2023-01-06T04:39:45;3.75;;;1.48;;
71806;SDS011;59655;42.590;23.364;2023-01-06T04:42:10;3.83;;;1.73;;
71806;SDS011;59655;42.590;23.364;2023-01-06T04:44:36;3.00;;;1.60;;
71806;SDS011;59655;42.590;23.364;2023-01-06T04:47:01;3.78;;;1.60;;
71806;SDS011;59655;42.590;23.364;2023-01-06T04:49:27;2.80;;;1.48;;
71806;SDS011;59655;42.590;23.364;2023-01-06T04:51:52;2.50;;;1.10;;
71806;SDS011;59655;42.590;23.364;2023-01-06T04:54:18;3.20;;;1.30;;
71806;SDS011;59655;42.590;23.364;2023-01-06T04:56:43;3.35;;;1.40;;
71806;SDS011;59655;42.590;23.364;2023-01-06T04:59:09;4.32;;;1.67;;
71806;SDS011;59655;42.590;23.364;2023-01-06T05:01:34;5.55;;;2.33;;
71806;SDS011;59655;42.590;23.364;2023-01-06T05:04:00;3.35;;;1.63;;
71806;SDS011;59655;42.590;23.364;2023-01-06T05:06:26;6.15;;;2.22;;
71806;SDS011;59655;42.590;23.364;2023-01-06T05:08:52;3.55;;;1.58;;
71806;SDS011;59655;42.590;23.364;2023-01-06T05:11:19;3.35;;;1.50;;
71806;SDS011;59655;42.590;23.364;2023-01-06T05:13:46;3.65;;;1.48;;
71806;SDS011;59655;42.590;23.364;2023-01-06T05:16:19;3.25;;;1.65;;
71806;SDS011;59655;42.590;23.364;2023-01-06T05:18:49;3.28;;;1.98;;
71806;SDS011;59655;42.590;23.364;2023-01-06T05:21:15;2.95;;;1.40;;
71806;SDS011;59655;42.590;23.364;2023-01-06T05:23:40;4.53;;;1.70;;
71806;SDS011;59655;42.590;23.364;2023-01-06T05:26:06;4.80;;;1.60;;
71806;SDS011;59655;42.590;23.364;2023-01-06T05:28:33;4.38;;;1.40;;
71806;SDS011;59655;42.590;23.364;2023-01-06T05:31:02;3.05;;;1.48;;
71806;SDS011;59655;42.590;23.364;2023-01-06T05:33:30;8.20;;;1.48;;
71806;SDS011;59655;42.590;23.364;2023-01-06T05:36:00;4.72;;;1.50;;
71806;SDS011;59655;42.590;23.364;2023-01-06T05:38:27;11.25;;;1.70;;
71806;SDS011;59655;42.590;23.364;2023-01-06T05:40:53;3.28;;;1.40;;
71806;SDS011;59655;42.590;23.364;2023-01-06T05:43:20;4.60;;;1.67;;
71806;SDS011;59655;42.590;23.364;2023-01-06T05:45:46;4.50;;;1.65;;
71806;SDS011;59655;42.590;23.364;2023-01-06T05:48:11;2.50;;;1.27;;
71806;SDS011;59655;42.590;23.364;2023-01-06T05:50:36;3.17;;;1.30;;
71806;SDS011;59655;42.590;23.364;2023-01-06T05:53:02;4.90;;;2.13;;
71806;SDS011;59655;42.590;23.364;2023-01-06T05:55:27;3.80;;;1.90;;
71806;SDS011;59655;42.590;23.364;2023-01-06T05:57:53;5.00;;;2.50;;
71806;SDS011;59655;42.590;23.364;2023-01-06T06:00:18;4.32;;;2.10;;
71806;SDS011;59655;42.590;23.364;2023-01-06T06:02:44;2.85;;;1.35;;
71806;SDS011;59655;42.590;23.364;2023-01-06T06:05:09;4.80;;;1.73;;
71806;SDS011;59655;42.590;23.364;2023-01-06T06:07:35;2.67;;;1.35;;
71806;SDS011;59655;42.590;23.364;2023-01-06T06:10:00;2.00;;;1.23;;
71806;SDS011;59655;42.590;23.364;2023-01-06T06:12:26;4.55;;;1.20;;
71806;SDS011;59655;42.590;23.364;2023-01-06T06:14:51;1.85;;;1.08;;
71806;SDS011;59655;42.590;23.364;2023-01-06T06:17:17;3.15;;;1.38;;
71806;SDS011;59655;42.590;23.364;2023-01-06T06:19:42;11.70;;;3.28;;
71806;SDS011;59655;42.590;23.364;2023-01-06T06:22:08;3.83;;;1.33;;
71806;SDS011;59655;42.590;23.364;2023-01-06T06:24:33;1.95;;;1.00;;
71806;SDS011;59655;42.590;23.364;2023-01-06T06:26:59;2.55;;;1.10;;
71806;SDS011;59655;42.590;23.364;2023-01-06T06:29:24;1.67;;;0.80;;
71806;SDS011;59655;42.590;23.364;2023-01-06T06:31:49;1.45;;;0.95;;
71806;SDS011;59655;42.590;23.364;2023-01-06T06:34:15;3.10;;;0.80;;
71806;SDS011;59655;42.590;23.364;2023-01-06T06:36:41;6.65;;;1.27;;
71806;SDS011;59655;42.590;23.364;2023-01-06T06:39:06;2.13;;;0.98;;
71806;SDS011;59655;42.590;23.364;2023-01-06T06:41:31;2.63;;;0.80;;
71806;SDS011;59655;42.590;23.364;2023-01-06T06:43:57;1.38;;;0.70;;
71806;SDS011;59655;42.590;23.364;2023-01-06T06:46:22;3.60;;;1.00;;
71806;SDS011;59655;42.590;23.364;2023-01-06T06:48:48;1.05;;;0.70;;
71806;SDS011;59655;42.590;23.364;2023-01-06T06:51:15;1.40;;;0.60;;
71806;SDS011;59655;42.590;23.364;2023-01-06T06:53:42;3.25;;;1.10;;
71806;SDS011;59655;42.590;23.364;2023-01-06T06:56:09;1.70;;;0.77;;
71806;SDS011;59655;42.590;23.364;2023-01-06T06:58:35;2.50;;;0.70;;
71806;SDS011;59655;42.590;23.364;2023-01-06T07:01:04;2.53;;;0.85;;
71806;SDS011;59655;42.590;23.364;2023-01-06T07:03:30;2.92;;;0.80;;
71806;SDS011;59655;42.590;23.364;2023-01-06T07:05:56;5.53;;;4.07;;
71806;SDS011;59655;42.590;23.364;2023-01-06T07:08:21;2.35;;;0.90;;
71806;SDS011;59655;42.590;23.364;2023-01-06T07:10:47;2.70;;;1.30;;
71806;SDS011;59655;42.590;23.364;2023-01-06T07:13:12;3.22;;;1.25;;
71806;SDS011;59655;42.590;23.364;2023-01-06T07:15:38;3.33;;;0.95;;
71806;SDS011;59655;42.590;23.364;2023-01-06T07:18:04;3.55;;;2.20;;
71806;SDS011;59655;42.590;23.364;2023-01-06T07:20:30;2.05;;;0.80;;
71806;SDS011;59655;42.590;23.364;2023-01-06T07:22:57;2.22;;;0.70;;
71806;SDS011;59655;42.590;23.364;2023-01-06T07:25:22;3.50;;;0.77;;
71806;SDS011;59655;42.590;23.364;2023-01-06T07:27:55;2.50;;;0.80;;
71806;SDS011;59655;42.590;23.364;2023-01-06T07:30:22;3.15;;;0.90;;
71806;SDS011;59655;42.590;23.364;2023-01-06T07:32:50;4.25;;;1.25;;
71806;SDS011;59655;42.590;23.364;2023-01-06T07:35:15;2.35;;;0.70;;
71806;SDS011;59655;42.590;23.364;2023-01-06T07:37:41;2.03;;;0.90;;
71806;SDS011;59655;42.590;23.364;2023-01-06T07:40:07;4.57;;;0.82;;
71806;SDS011;59655;42.590;23.364;2023-01-06T07:42:34;2.58;;;0.98;;
71806;SDS011;59655;42.590;23.364;2023-01-06T07:45:00;3.60;;;1.05;;
71806;SDS011;59655;42.590;23.364;2023-01-06T07:47:25;4.55;;;1.10;;
71806;SDS011;59655;42.590;23.364;2023-01-06T07:49:51;4.78;;;1.60;;
71806;SDS011;59655;42.590;23.364;2023-01-06T07:52:16;2.95;;;1.50;;
71806;SDS011;59655;42.590;23.364;2023-01-06T07:54:41;3.70;;;1.92;;
71806;SDS011;59655;42.590;23.364;2023-01-06T07:57:07;3.13;;;1.20;;
71806;SDS011;59655;42.590;23.364;2023-01-06T07:59:32;2.65;;;1.25;;
71806;SDS011;59655;42.590;23.364;2023-01-06T08:01:57;3.05;;;1.70;;
71806;SDS011;59655;42.590;23.364;2023-01-06T08:04:23;2.38;;;1.00;;
71806;SDS011;59655;42.590;23.364;2023-01-06T08:06:48;5.75;;;1.42;;
71806;SDS011;59655;42.590;23.364;2023-01-06T08:09:14;2.30;;;1.00;;
71806;SDS011;59655;42.590;23.364;2023-01-06T08:11:39;3.92;;;1.15;;
71806;SDS011;59655;42.590;23.364;2023-01-06T08:14:05;3.30;;;1.30;;
71806;SDS011;59655;42.590;23.364;2023-01-06T08:16:30;2.47;;;1.38;;
71806;SDS011;59655;42.590;23.364;2023-01-06T08:18:55;6.28;;;1.10;;
71806;SDS011;59655;42.590;23.364;2023-01-06T08:21:21;2.08;;;0.75;;
71806;SDS011;59655;42.590;23.364;2023-01-06T08:23:46;3.22;;;0.80;;
71806;SDS011;59655;42.590;23.364;2023-01-06T08:26:13;2.53;;;0.80;;
71806;SDS011;59655;42.590;23.364;2023-01-06T08:31:07;1.60;;;0.95;;
71806;SDS011;59655;42.590;23.364;2023-01-06T08:33:34;2.03;;;0.80;;
71806;SDS011;59655;42.590;23.364;2023-01-06T08:36:00;2.20;;;1.05;;
71806;SDS011;59655;42.590;23.364;2023-01-06T08:38:27;3.50;;;1.52;;
71806;SDS011;59655;42.590;23.364;2023-01-06T08:40:54;2.13;;;0.80;;
71806;SDS011;59655;42.590;23.364;2023-01-06T08:43:21;3.60;;;1.10;;
71806;SDS011;59655;42.590;23.364;2023-01-06T08:45:47;1.40;;;0.80;;
71806;SDS011;59655;42.590;23.364;2023-01-06T08:48:12;4.18;;;1.67;;
71806;SDS011;59655;42.590;23.364;2023-01-06T08:50:39;3.70;;;1.25;;
71806;SDS011;59655;42.590;23.364;2023-01-06T08:53:05;2.92;;;0.90;;
71806;SDS011;59655;42.590;23.364;2023-01-06T08:55:31;3.55;;;1.40;;
71806;SDS011;59655;42.590;23.364;2023-01-06T08:57:57;2.72;;;1.00;;
71806;SDS011;59655;42.590;23.364;2023-01-06T09:00:22;3.83;;;1.33;;
71806;SDS011;59655;42.590;23.364;2023-01-06T09:02:48;5.72;;;1.15;;
71806;SDS011;59655;42.590;23.364;2023-01-06T09:05:13;1.92;;;0.80;;
71806;SDS011;59655;42.590;23.364;2023-01-06T09:07:39;5.60;;;1.23;;
71806;SDS011;59655;42.590;23.364;2023-01-06T09:10:04;4.22;;;1.17;;
71806;SDS011;59655;42.590;23.364;2023-01-06T09:12:30;6.20;;;1.35;;
71806;SDS011;59655;42.590;23.364;2023-01-06T09:14:56;3.30;;;1.30;;
71806;SDS011;59655;42.590;23.364;2023-01-06T09:17:21;2.88;;;0.88;;
71806;SDS011;59655;42.590;23.364;2023-01-06T09:19:46;2.97;;;1.20;;
71806;SDS011;59655;42.590;23.364;2023-01-06T09:22:12;5.20;;;1.05;;
71806;SDS011;59655;42.590;23.364;2023-01-06T09:24:37;2.22;;;0.93;;
71806;SDS011;59655;42.590;23.364;2023-01-06T09:27:03;3.10;;;1.00;;
71806;SDS011;59655;42.590;23.364;2023-01-06T09:29:28;2.95;;;1.10;;
71806;SDS011;59655;42.590;23.364;2023-01-06T09:31:54;4.70;;;1.02;;
71806;SDS011;59655;42.590;23.364;2023-01-06T09:34:19;3.13;;;1.40;;
71806;SDS011;59655;42.590;23.364;2023-01-06T09:36:44;2.60;;;0.90;;
71806;SDS011;59655;42.590;23.364;2023-01-06T09:39:10;2.03;;;1.05;;
71806;SDS011;59655;42.590;23.364;2023-01-06T09:46:45;4.45;;;1.10;;
71806;SDS011;59655;42.590;23.364;2023-01-06T09:49:27;5.85;;;1.08;;
71806;SDS011;59655;42.590;23.364;2023-01-06T09:52:00;9.88;;;1.70;;
71806;SDS011;59655;42.590;23.364;2023-01-06T09:54:32;3.17;;;1.17;;
71806;SDS011;59655;42.590;23.364;2023-01-06T09:57:01;3.65;;;1.25;;
71806;SDS011;59655;42.590;23.364;2023-01-06T09:59:36;2.92;;;1.00;;
71806;SDS011;59655;42.590;23.364;2023-01-06T10:02:30;1.25;;;0.68;;
71806;SDS011;59655;42.590;23.364;2023-01-06T10:05:00;6.68;;;1.20;;
71806;SDS011;59655;42.590;23.364;2023-01-06T10:07:37;6.57;;;1.05;;
71806;SDS011;59655;42.590;23.364;2023-01-06T10:10:26;1.83;;;0.90;;
71806;SDS011;59655;42.590;23.364;2023-01-06T10:21:43;2.25;;;1.00;;
71806;SDS011;59655;42.590;23.364;2023-01-06T10:27:04;4.70;;;1.02;;
71806;SDS011;59655;42.590;23.364;2023-01-06T10:29:37;4.50;;;1.60;;
71806;SDS011;59655;42.590;23.364;2023-01-06T10:32:03;3.42;;;0.95;;
71806;SDS011;59655;42.590;23.364;2023-01-06T10:34:33;3.05;;;1.25;;
71806;SDS011;59655;42.590;23.364;2023-01-06T10:39:34;1.60;;;0.85;;
71806;SDS011;59655;42.590;23.364;2023-01-06T10:44:52;3.25;;;0.95;;
71806;SDS011;59655;42.590;23.364;2023-01-06T10:47:35;6.57;;;1.30;;
71806;SDS011;59655;42.590;23.364;2023-01-06T10:50:01;4.10;;;1.25;;
71806;SDS011;59655;42.590;23.364;2023-01-06T10:52:27;2.72;;;0.90;;
71806;SDS011;59655;42.590;23.364;2023-01-06T10:54:55;3.13;;;0.82;;
71806;SDS011;59655;42.590;23.364;2023-01-06T10:57:26;8.20;;;1.10;;
71806;SDS011;59655;42.590;23.364;2023-01-06T11:02:45;5.53;;;1.20;;
71806;SDS011;59655;42.590;23.364;2023-01-06T11:05:16;2.50;;;0.93;;
71806;SDS011;59655;42.590;23.364;2023-01-06T11:07:44;5.55;;;1.17;;
71806;SDS011;59655;42.590;23.364;2023-01-06T11:12:58;4.32;;;1.20;;
71806;SDS011;59655;42.590;23.364;2023-01-06T11:15:37;6.88;;;1.30;;
71806;SDS011;59655;42.590;23.364;2023-01-06T11:18:16;4.35;;;1.17;;
71806;SDS011;59655;42.590;23.364;2023-01-06T11:23:35;11.13;;;1.55;;
71806;SDS011;59655;42.590;23.364;2023-01-06T11:28:38;3.58;;;1.20;;
71806;SDS011;59655;42.590;23.364;2023-01-06T11:36:23;4.80;;;1.30;;
71806;SDS011;59655;42.590;23.364;2023-01-06T11:38:55;3.17;;;1.33;;
71806;SDS011;59655;42.590;23.364;2023-01-06T11:41:35;5.68;;;2.30;;
71806;SDS011;59655;42.590;23.364;2023-01-06T11:44:05;4.72;;;1.50;;
71806;SDS011;59655;42.590;23.364;2023-01-06T11:46:34;2.88;;;1.30;;
71806;SDS011;59655;42.590;23.364;2023-01-06T11:49:05;5.53;;;1.73;;
71806;SDS011;59655;42.590;23.364;2023-01-06T11:52:03;3.47;;;1.67;;
71806;SDS011;59655;42.590;23.364;2023-01-06T11:54:36;4.82;;;1.42;;
71806;SDS011;59655;42.590;23.364;2023-01-06T11:57:18;5.63;;;1.60;;
71806;SDS011;59655;42.590;23.364;2023-01-06T12:08:30;3.17;;;1.35;;
71806;SDS011;59655;42.590;23.364;2023-01-06T12:11:02;5.57;;;2.42;;
71806;SDS011;59655;42.590;23.364;2023-01-06T12:13:29;2.90;;;1.20;;
71806;SDS011;59655;42.590;23.364;2023-01-06T12:16:00;5.78;;;1.33;;
71806;SDS011;59655;42.590;23.364;2023-01-06T12:18:31;3.05;;;1.30;;
71806;SDS011;59655;42.590;23.364;2023-01-06T12:20:59;4.22;;;1.17;;
71806;SDS011;59655;42.590;23.364;2023-01-06T12:23:27;3.10;;;1.13;;
71806;SDS011;59655;42.590;23.364;2023-01-06T12:25:56;4.80;;;1.50;;
71806;SDS011;59655;42.590;23.364;2023-01-06T12:28:27;2.78;;;1.10;;
71806;SDS011;59655;42.590;23.364;2023-01-06T12:31:07;3.30;;;1.25;;
71806;SDS011;59655;42.590;23.364;2023-01-06T12:33:43;3.00;;;1.00;;
71806;SDS011;59655;42.590;23.364;2023-01-06T12:36:35;3.05;;;1.20;;
71806;SDS011;59655;42.590;23.364;2023-01-06T12:39:15;5.10;;;1.95;;
71806;SDS011;59655;42.590;23.364;2023-01-06T12:42:24;2.85;;;1.10;;
71806;SDS011;59655;42.590;23.364;2023-01-06T12:49:57;4.05;;;1.48;;
71806;SDS011;59655;42.590;23.364;2023-01-06T12:52:34;3.10;;;1.13;;
71806;SDS011;59655;42.590;23.364;2023-01-06T12:55:04;4.20;;;1.65;;
71806;SDS011;59655;42.590;23.364;2023-01-06T13:02:54;3.08;;;1.25;;
71806;SDS011;59655;42.590;23.364;2023-01-06T13:08:31;3.95;;;1.30;;
71806;SDS011;59655;42.590;23.364;2023-01-06T13:11:15;3.85;;;1.40;;
71806;SDS011;59655;42.590;23.364;2023-01-06T13:13:55;6.00;;;1.63;;
71806;SDS011;59655;42.590;23.364;2023-01-06T13:22:00;4.38;;;1.50;;
71806;SDS011;59655;42.590;23.364;2023-01-06T13:41:32;2.92;;;1.38;;
71806;SDS011;59655;42.590;23.364;2023-01-06T13:44:04;4.30;;;1.60;;
71806;SDS011;59655;42.590;23.364;2023-01-06T13:46:37;6.03;;;1.27;;
71806;SDS011;59655;42.590;23.364;2023-01-06T13:49:03;3.13;;;1.33;;
71806;SDS011;59655;42.590;23.364;2023-01-06T13:51:36;4.28;;;1.30;;
71806;SDS011;59655;42.590;23.364;2023-01-06T13:54:04;4.50;;;1.30;;
71806;SDS011;59655;42.590;23.364;2023-01-06T13:56:31;3.65;;;1.52;;
71806;SDS011;59655;42.590;23.364;2023-01-06T14:01:46;2.97;;;1.42;;
71806;SDS011;59655;42.590;23.364;2023-01-06T14:06:56;3.42;;;1.33;;
71806;SDS011;59655;42.590;23.364;2023-01-06T14:09:22;3.30;;;1.50;;
71806;SDS011;59655;42.590;23.364;2023-01-06T14:11:47;6.30;;;1.80;;
71806;SDS011;59655;42.590;23.364;2023-01-06T14:14:20;3.58;;;1.63;;
71806;SDS011;59655;42.590;23.364;2023-01-06T14:16:53;5.00;;;1.40;;
71806;SDS011;59655;42.590;23.364;2023-01-06T14:19:25;3.10;;;1.40;;
71806;SDS011;59655;42.590;23.364;2023-01-06T14:24:36;3.50;;;1.30;;
71806;SDS011;59655;42.590;23.364;2023-01-06T14:27:06;6.47;;;1.70;;
71806;SDS011;59655;42.590;23.364;2023-01-06T14:32:05;2.50;;;1.40;;
71806;SDS011;59655;42.590;23.364;2023-01-06T14:34:35;5.95;;;1.92;;
71806;SDS011;59655;42.590;23.364;2023-01-06T14:37:02;4.50;;;1.80;;
71806;SDS011;59655;42.590;23.364;2023-01-06T14:39:29;8.05;;;1.92;;
71806;SDS011;59655;42.590;23.364;2023-01-06T14:42:04;3.92;;;1.83;;
71806;SDS011;59655;42.590;23.364;2023-01-06T14:44:40;6.25;;;1.85;;
71806;SDS011;59655;42.590;23.364;2023-01-06T14:47:58;6.97;;;1.80;;
71806;SDS011;59655;42.590;23.364;2023-01-06T14:50:14;4.70;;;1.80;;
71806;SDS011;59655;42.590;23.364;2023-01-06T14:52:50;6.13;;;2.80;;
71806;SDS011;59655;42.590;23.364;2023-01-06T14:55:20;3.58;;;2.10;;
71806;SDS011;59655;42.590;23.364;2023-01-06T14:57:48;6.47;;;3.47;;
71806;SDS011;59655;42.590;23.364;2023-01-06T15:02:45;7.38;;;1.90;;
71806;SDS011;59655;42.590;23.364;2023-01-06T15:05:17;5.50;;;1.98;;
71806;SDS011;59655;42.590;23.364;2023-01-06T15:08:01;10.55;;;4.97;;
71806;SDS011;59655;42.590;23.364;2023-01-06T15:10:29;4.13;;;1.60;;
71806;SDS011;59655;42.590;23.364;2023-01-06T15:12:59;3.45;;;1.95;;
71806;SDS011;59655;42.590;23.364;2023-01-06T15:15:29;4.38;;;1.85;;
71806;SDS011;59655;42.590;23.364;2023-01-06T15:17:56;7.22;;;2.55;;
71806;SDS011;59655;42.590;23.364;2023-01-06T15:20:28;4.43;;;1.65;;
71806;SDS011;59655;42.590;23.364;2023-01-06T15:22:57;4.20;;;1.48;;
71806;SDS011;59655;42.590;23.364;2023-01-06T15:25:25;3.40;;;1.63;;
71806;SDS011;59655;42.590;23.364;2023-01-06T15:27:52;4.65;;;1.83;;
71806;SDS011;59655;42.590;23.364;2023-01-06T15:30:19;6.05;;;1.88;;
71806;SDS011;59655;42.590;23.364;2023-01-06T15:32:47;43.13;;;32.92;;
71806;SDS011;59655;42.590;23.364;2023-01-06T15:35:21;43.92;;;32.55;;
71806;SDS011;59655;42.590;23.364;2023-01-06T15:38:24;38.20;;;28.08;;
71806;SDS011;59655;42.590;23.364;2023-01-06T15:40:52;21.45;;;8.77;;
71806;SDS011;59655;42.590;23.364;2023-01-06T15:43:22;16.83;;;6.70;;
71806;SDS011;59655;42.590;23.364;2023-01-06T15:48:28;34.30;;;14.82;;
71806;SDS011;59655;42.590;23.364;2023-01-06T15:50:56;13.38;;;4.25;;
71806;SDS011;59655;42.590;23.364;2023-01-06T15:53:23;13.73;;;5.57;;
71806;SDS011;59655;42.590;23.364;2023-01-06T15:55:56;24.08;;;9.30;;
71806;SDS011;59655;42.590;23.364;2023-01-06T15:58:28;12.05;;;4.47;;
71806;SDS011;59655;42.590;23.364;2023-01-06T16:01:00;23.25;;;6.93;;
71806;SDS011;59655;42.590;23.364;2023-01-06T16:03:37;10.20;;;5.20;;
71806;SDS011;59655;42.590;23.364;2023-01-06T16:08:30;10.80;;;5.10;;
71806;SDS011;59655;42.590;23.364;2023-01-06T16:11:08;10.18;;;5.38;;
71806;SDS011;59655;42.590;23.364;2023-01-06T16:18:43;6.43;;;3.70;;
71806;SDS011;59655;42.590;23.364;2023-01-06T16:23:54;27.38;;;12.23;;
71806;SDS011;59655;42.590;23.364;2023-01-06T16:26:23;10.45;;;4.53;;
71806;SDS011;59655;42.590;23.364;2023-01-06T16:28:51;7.38;;;2.83;;
71806;SDS011;59655;42.590;23.364;2023-01-06T16:31:27;7.97;;;3.00;;
71806;SDS011;59655;42.590;23.364;2023-01-06T16:34:13;5.72;;;2.20;;
71806;SDS011;59655;42.590;23.364;2023-01-06T16:36:38;9.20;;;2.50;;
71806;SDS011;59655;42.590;23.364;2023-01-06T16:39:04;5.75;;;2.90;;
71806;SDS011;59655;42.590;23.364;2023-01-06T16:41:30;4.78;;;2.53;;
71806;SDS011;59655;42.590;23.364;2023-01-06T16:43:55;6.88;;;2.88;;
71806;SDS011;59655;42.590;23.364;2023-01-06T16:46:21;7.07;;;2.67;;
71806;SDS011;59655;42.590;23.364;2023-01-06T16:48:53;5.95;;;2.08;;
71806;SDS011;59655;42.590;23.364;2023-01-06T16:51:19;38.97;;;17.25;;
71806;SDS011;59655;42.590;23.364;2023-01-06T16:53:45;32.63;;;14.20;;
71806;SDS011;59655;42.590;23.364;2023-01-06T16:56:21;13.57;;;5.25;;
71806;SDS011;59655;42.590;23.364;2023-01-06T16:58:48;10.95;;;5.22;;
71806;SDS011;59655;42.590;23.364;2023-01-06T17:01:15;8.02;;;3.70;;
71806;SDS011;59655;42.590;23.364;2023-01-06T17:03:43;10.85;;;4.57;;
71806;SDS011;59655;42.590;23.364;2023-01-06T17:06:17;13.77;;;7.95;;
71806;SDS011;59655;42.590;23.364;2023-01-06T17:08:45;14.60;;;7.50;;
71806;SDS011;59655;42.590;23.364;2023-01-06T17:11:12;13.63;;;7.00;;
71806;SDS011;59655;42.590;23.364;2023-01-06T17:13:50;76.38;;;29.55;;
71806;SDS011;59655;42.590;23.364;2023-01-06T17:16:24;63.78;;;25.73;;
71806;SDS011;59655;42.590;23.364;2023-01-06T17:18:57;45.13;;;18.98;;
71806;SDS011;59655;42.590;23.364;2023-01-06T17:21:31;56.58;;;22.38;;
71806;SDS011;59655;42.590;23.364;2023-01-06T17:24:09;37.67;;;15.13;;
71806;SDS011;59655;42.590;23.364;2023-01-06T17:26:38;11.30;;;4.80;;
71806;SDS011;59655;42.590;23.364;2023-01-06T17:29:11;19.00;;;6.25;;
71806;SDS011;59655;42.590;23.364;2023-01-06T17:31:39;123.15;;;58.95;;